LFLC 210400Z AUTO 01010KT 9999 OVC011 00/M01 Q1031 TEMPO 1100 -SG OVC004

ElémentsDécodage
LFLC Station météo située sur l'aérodrome de CLERMONT-FERRAND Auvergne
210400Z émis le 21 du mois à 04h00 UTC
AUTO Bulletin édité par un automate
01010KT vent du 010°, 10 noeuds
9999 visibilité horizontale supérieure à 10 Km
OVC011 couverture nuageuse totale (8/8) à 1100 pieds
00/M01 température 00°C, point de rosée -01°C
 soit une humidité relative de 93%
Q1031 la pression au niveau de la mer (QNH) est de 1031 hPa
TEMPO fluctuation temporaire prévue
1100 visibilité horizontale de 1100 mètres
-SG faible neige en grains
OVC004 couverture nuageuse totale (8/8) à 400 pieds